sensor_id;sensor_type;location;lat;lon;timestamp;P1;durP1;ratioP1;P2;durP2;ratioP2
44985;SDS011;30721;49.380;7.736;2024-01-16T00:02:25;8.10;;;3.60;;
44985;SDS011;30721;49.380;7.736;2024-01-16T00:04:50;7.13;;;3.67;;
44985;SDS011;30721;49.380;7.736;2024-01-16T00:07:15;5.63;;;3.30;;
44985;SDS011;30721;49.380;7.736;2024-01-16T00:09:41;7.47;;;3.88;;
44985;SDS011;30721;49.380;7.736;2024-01-16T00:12:06;6.55;;;3.63;;
44985;SDS011;30721;49.380;7.736;2024-01-16T00:14:35;6.60;;;3.42;;
44985;SDS011;30721;49.380;7.736;2024-01-16T00:17:01;7.45;;;3.78;;
44985;SDS011;30721;49.380;7.736;2024-01-16T00:19:27;8.65;;;3.50;;
44985;SDS011;30721;49.380;7.736;2024-01-16T00:21:53;6.65;;;3.50;;
44985;SDS011;30721;49.380;7.736;2024-01-16T00:24:18;6.32;;;3.25;;
44985;SDS011;30721;49.380;7.736;2024-01-16T00:26:43;7.22;;;3.65;;
44985;SDS011;30721;49.380;7.736;2024-01-16T00:29:09;7.45;;;3.67;;
44985;SDS011;30721;49.380;7.736;2024-01-16T00:31:37;6.57;;;3.83;;
44985;SDS011;30721;49.380;7.736;2024-01-16T00:34:02;7.20;;;3.47;;
44985;SDS011;30721;49.380;7.736;2024-01-16T00:36:28;7.35;;;3.42;;
44985;SDS011;30721;49.380;7.736;2024-01-16T00:38:53;5.90;;;3.13;;
44985;SDS011;30721;49.380;7.736;2024-01-16T00:41:19;6.35;;;3.13;;
44985;SDS011;30721;49.380;7.736;2024-01-16T00:43:44;6.10;;;3.70;;
44985;SDS011;30721;49.380;7.736;2024-01-16T00:46:10;9.90;;;3.92;;
44985;SDS011;30721;49.380;7.736;2024-01-16T00:48:36;6.18;;;3.70;;
44985;SDS011;30721;49.380;7.736;2024-01-16T00:51:01;6.68;;;3.50;;
44985;SDS011;30721;49.380;7.736;2024-01-16T00:53:27;5.45;;;3.65;;
44985;SDS011;30721;49.380;7.736;2024-01-16T00:55:52;5.75;;;3.65;;
44985;SDS011;30721;49.380;7.736;2024-01-16T00:58:22;9.00;;;4.10;;
44985;SDS011;30721;49.380;7.736;2024-01-16T01:00:48;7.85;;;3.92;;
44985;SDS011;30721;49.380;7.736;2024-01-16T01:03:13;6.47;;;4.03;;
44985;SDS011;30721;49.380;7.736;2024-01-16T01:05:38;6.18;;;4.05;;
44985;SDS011;30721;49.380;7.736;2024-01-16T01:08:04;7.28;;;4.05;;
44985;SDS011;30721;49.380;7.736;2024-01-16T01:10:29;9.88;;;3.85;;
44985;SDS011;30721;49.380;7.736;2024-01-16T01:12:55;6.53;;;4.63;;
44985;SDS011;30721;49.380;7.736;2024-01-16T01:15:20;8.23;;;4.22;;
44985;SDS011;30721;49.380;7.736;2024-01-16T01:17:48;8.75;;;3.75;;
44985;SDS011;30721;49.380;7.736;2024-01-16T01:20:14;10.02;;;5.00;;
44985;SDS011;30721;49.380;7.736;2024-01-16T01:22:40;6.32;;;3.92;;
44985;SDS011;30721;49.380;7.736;2024-01-16T01:25:05;7.05;;;3.70;;
44985;SDS011;30721;49.380;7.736;2024-01-16T01:27:31;8.13;;;4.07;;
44985;SDS011;30721;49.380;7.736;2024-01-16T01:29:57;7.75;;;4.10;;
44985;SDS011;30721;49.380;7.736;2024-01-16T01:32:23;6.55;;;4.28;;
44985;SDS011;30721;49.380;7.736;2024-01-16T01:34:48;7.82;;;3.97;;
44985;SDS011;30721;49.380;7.736;2024-01-16T01:37:14;10.80;;;4.75;;
44985;SDS011;30721;49.380;7.736;2024-01-16T01:39:39;10.07;;;4.50;;
44985;SDS011;30721;49.380;7.736;2024-01-16T01:42:05;7.25;;;4.13;;
44985;SDS011;30721;49.380;7.736;2024-01-16T01:44:30;8.38;;;4.68;;
44985;SDS011;30721;49.380;7.736;2024-01-16T01:46:56;7.97;;;4.50;;
44985;SDS011;30721;49.380;7.736;2024-01-16T01:49:21;10.07;;;4.68;;
44985;SDS011;30721;49.380;7.736;2024-01-16T01:51:47;7.00;;;4.32;;
44985;SDS011;30721;49.380;7.736;2024-01-16T01:54:13;7.65;;;4.00;;
44985;SDS011;30721;49.380;7.736;2024-01-16T01:56:41;7.95;;;4.60;;
44985;SDS011;30721;49.380;7.736;2024-01-16T01:59:08;7.22;;;4.20;;
44985;SDS011;30721;49.380;7.736;2024-01-16T02:01:33;8.65;;;4.00;;
44985;SDS011;30721;49.380;7.736;2024-01-16T02:03:59;7.47;;;3.83;;
44985;SDS011;30721;49.380;7.736;2024-01-16T02:06:25;8.63;;;3.80;;
44985;SDS011;30721;49.380;7.736;2024-01-16T02:08:50;7.85;;;4.03;;
44985;SDS011;30721;49.380;7.736;2024-01-16T02:11:16;10.25;;;4.53;;
44985;SDS011;30721;49.380;7.736;2024-01-16T02:13:41;6.68;;;3.53;;
44985;SDS011;30721;49.380;7.736;2024-01-16T02:16:17;8.60;;;4.68;;
44985;SDS011;30721;49.380;7.736;2024-01-16T02:18:44;8.63;;;4.43;;
44985;SDS011;30721;49.380;7.736;2024-01-16T02:21:09;7.68;;;4.50;;
44985;SDS011;30721;49.380;7.736;2024-01-16T02:23:34;9.73;;;4.70;;
44985;SDS011;30721;49.380;7.736;2024-01-16T02:26:00;8.50;;;3.83;;
44985;SDS011;30721;49.380;7.736;2024-01-16T02:28:26;8.20;;;4.38;;
44985;SDS011;30721;49.380;7.736;2024-01-16T02:30:51;9.23;;;4.72;;
44985;SDS011;30721;49.380;7.736;2024-01-16T02:33:17;9.25;;;3.78;;
44985;SDS011;30721;49.380;7.736;2024-01-16T02:35:42;10.25;;;4.30;;
44985;SDS011;30721;49.380;7.736;2024-01-16T02:38:07;7.68;;;4.60;;
44985;SDS011;30721;49.380;7.736;2024-01-16T02:40:33;7.47;;;3.95;;
44985;SDS011;30721;49.380;7.736;2024-01-16T02:42:58;9.25;;;4.40;;
44985;SDS011;30721;49.380;7.736;2024-01-16T02:45:24;9.90;;;4.30;;
44985;SDS011;30721;49.380;7.736;2024-01-16T02:47:50;8.88;;;4.60;;
44985;SDS011;30721;49.380;7.736;2024-01-16T02:50:15;7.00;;;4.20;;
44985;SDS011;30721;49.380;7.736;2024-01-16T02:52:41;9.23;;;4.90;;
44985;SDS011;30721;49.380;7.736;2024-01-16T02:55:06;10.77;;;4.82;;
44985;SDS011;30721;49.380;7.736;2024-01-16T02:57:32;8.50;;;4.40;;
44985;SDS011;30721;49.380;7.736;2024-01-16T02:59:58;8.65;;;4.75;;
44985;SDS011;30721;49.380;7.736;2024-01-16T03:02:24;9.05;;;4.40;;
44985;SDS011;30721;49.380;7.736;2024-01-16T03:04:49;9.68;;;5.05;;
44985;SDS011;30721;49.380;7.736;2024-01-16T03:07:15;8.40;;;5.15;;
44985;SDS011;30721;49.380;7.736;2024-01-16T03:09:40;11.20;;;5.20;;
44985;SDS011;30721;49.380;7.736;2024-01-16T03:12:06;9.57;;;4.38;;
44985;SDS011;30721;49.380;7.736;2024-01-16T03:14:31;8.45;;;4.53;;
44985;SDS011;30721;49.380;7.736;2024-01-16T03:17:02;10.30;;;4.82;;
44985;SDS011;30721;49.380;7.736;2024-01-16T03:19:28;7.90;;;4.22;;
44985;SDS011;30721;49.380;7.736;2024-01-16T03:21:53;8.82;;;4.88;;
44985;SDS011;30721;49.380;7.736;2024-01-16T03:24:19;8.68;;;4.15;;
44985;SDS011;30721;49.380;7.736;2024-01-16T03:26:45;10.02;;;4.80;;
44985;SDS011;30721;49.380;7.736;2024-01-16T03:29:10;8.68;;;4.35;;
44985;SDS011;30721;49.380;7.736;2024-01-16T03:31:36;10.10;;;4.75;;
44985;SDS011;30721;49.380;7.736;2024-01-16T03:34:01;9.45;;;4.35;;
44985;SDS011;30721;49.380;7.736;2024-01-16T03:36:27;9.48;;;4.80;;
44985;SDS011;30721;49.380;7.736;2024-01-16T03:38:52;10.25;;;5.15;;
44985;SDS011;30721;49.380;7.736;2024-01-16T03:41:17;9.18;;;4.72;;
44985;SDS011;30721;49.380;7.736;2024-01-16T03:43:43;7.60;;;4.00;;
44985;SDS011;30721;49.380;7.736;2024-01-16T03:46:12;7.25;;;4.57;;
44985;SDS011;30721;49.380;7.736;2024-01-16T03:48:38;10.07;;;4.57;;
44985;SDS011;30721;49.380;7.736;2024-01-16T03:51:03;8.45;;;3.97;;
44985;SDS011;30721;49.380;7.736;2024-01-16T03:53:29;11.68;;;4.60;;
44985;SDS011;30721;49.380;7.736;2024-01-16T03:55:54;8.20;;;5.10;;
44985;SDS011;30721;49.380;7.736;2024-01-16T03:58:23;9.25;;;4.55;;
44985;SDS011;30721;49.380;7.736;2024-01-16T04:00:49;8.30;;;4.63;;
44985;SDS011;30721;49.380;7.736;2024-01-16T04:03:16;8.77;;;4.45;;
44985;SDS011;30721;49.380;7.736;2024-01-16T04:05:42;10.27;;;4.50;;
44985;SDS011;30721;49.380;7.736;2024-01-16T04:08:07;9.45;;;4.30;;
44985;SDS011;30721;49.380;7.736;2024-01-16T04:10:32;9.55;;;4.03;;
44985;SDS011;30721;49.380;7.736;2024-01-16T04:13:00;11.32;;;4.47;;
44985;SDS011;30721;49.380;7.736;2024-01-16T04:15:26;9.95;;;4.50;;
44985;SDS011;30721;49.380;7.736;2024-01-16T04:17:52;7.78;;;4.32;;
44985;SDS011;30721;49.380;7.736;2024-01-16T04:20:17;9.50;;;4.47;;
44985;SDS011;30721;49.380;7.736;2024-01-16T04:22:42;8.20;;;4.32;;
44985;SDS011;30721;49.380;7.736;2024-01-16T04:25:08;10.40;;;5.18;;
44985;SDS011;30721;49.380;7.736;2024-01-16T04:27:34;9.73;;;4.70;;
44985;SDS011;30721;49.380;7.736;2024-01-16T04:30:00;10.57;;;4.60;;
44985;SDS011;30721;49.380;7.736;2024-01-16T04:32:25;10.10;;;3.97;;
44985;SDS011;30721;49.380;7.736;2024-01-16T04:34:51;8.10;;;4.70;;
44985;SDS011;30721;49.380;7.736;2024-01-16T04:37:16;7.05;;;3.88;;
44985;SDS011;30721;49.380;7.736;2024-01-16T04:39:41;9.02;;;4.18;;
44985;SDS011;30721;49.380;7.736;2024-01-16T04:42:07;7.50;;;4.15;;
44985;SDS011;30721;49.380;7.736;2024-01-16T04:44:32;9.43;;;4.47;;
44985;SDS011;30721;49.380;7.736;2024-01-16T04:46:57;9.30;;;4.18;;
44985;SDS011;30721;49.380;7.736;2024-01-16T04:49:23;8.27;;;4.10;;
44985;SDS011;30721;49.380;7.736;2024-01-16T04:51:49;8.77;;;4.57;;
44985;SDS011;30721;49.380;7.736;2024-01-16T04:54:16;9.23;;;4.40;;
44985;SDS011;30721;49.380;7.736;2024-01-16T04:56:42;8.02;;;3.80;;
44985;SDS011;30721;49.380;7.736;2024-01-16T04:59:07;7.97;;;4.38;;
44985;SDS011;30721;49.380;7.736;2024-01-16T05:01:32;8.82;;;4.43;;
44985;SDS011;30721;49.380;7.736;2024-01-16T05:03:58;8.95;;;4.43;;
44985;SDS011;30721;49.380;7.736;2024-01-16T05:06:23;10.85;;;4.05;;
44985;SDS011;30721;49.380;7.736;2024-01-16T05:08:49;7.70;;;4.40;;
44985;SDS011;30721;49.380;7.736;2024-01-16T05:11:14;9.55;;;4.10;;
44985;SDS011;30721;49.380;7.736;2024-01-16T05:13:39;8.60;;;4.85;;
44985;SDS011;30721;49.380;7.736;2024-01-16T05:16:05;8.35;;;4.25;;
44985;SDS011;30721;49.380;7.736;2024-01-16T05:18:30;8.48;;;4.38;;
44985;SDS011;30721;49.380;7.736;2024-01-16T05:20:57;9.25;;;5.13;;
44985;SDS011;30721;49.380;7.736;2024-01-16T05:23:23;10.65;;;4.32;;
44985;SDS011;30721;49.380;7.736;2024-01-16T05:25:49;11.27;;;4.80;;
44985;SDS011;30721;49.380;7.736;2024-01-16T05:28:14;9.13;;;4.30;;
44985;SDS011;30721;49.380;7.736;2024-01-16T05:30:40;12.18;;;5.03;;
44985;SDS011;30721;49.380;7.736;2024-01-16T05:33:05;10.20;;;5.07;;
44985;SDS011;30721;49.380;7.736;2024-01-16T05:35:30;8.45;;;5.35;;
44985;SDS011;30721;49.380;7.736;2024-01-16T05:37:56;9.93;;;4.10;;
44985;SDS011;30721;49.380;7.736;2024-01-16T05:40:22;9.88;;;4.30;;
44985;SDS011;30721;49.380;7.736;2024-01-16T05:42:50;5.72;;;3.50;;
44985;SDS011;30721;49.380;7.736;2024-01-16T05:45:16;9.90;;;4.30;;
44985;SDS011;30721;49.380;7.736;2024-01-16T05:47:42;8.13;;;4.15;;
44985;SDS011;30721;49.380;7.736;2024-01-16T05:50:07;10.65;;;5.03;;
44985;SDS011;30721;49.380;7.736;2024-01-16T05:52:34;11.80;;;4.57;;
44985;SDS011;30721;49.380;7.736;2024-01-16T05:54:59;9.93;;;4.95;;
44985;SDS011;30721;49.380;7.736;2024-01-16T05:57:25;8.65;;;4.40;;
44985;SDS011;30721;49.380;7.736;2024-01-16T05:59:51;8.98;;;3.97;;
44985;SDS011;30721;49.380;7.736;2024-01-16T06:02:16;9.23;;;3.97;;
44985;SDS011;30721;49.380;7.736;2024-01-16T06:04:42;9.80;;;4.38;;
44985;SDS011;30721;49.380;7.736;2024-01-16T06:07:07;7.47;;;3.90;;
44985;SDS011;30721;49.380;7.736;2024-01-16T06:09:33;9.93;;;4.10;;
44985;SDS011;30721;49.380;7.736;2024-01-16T06:12:03;8.45;;;4.40;;
44985;SDS011;30721;49.380;7.736;2024-01-16T06:14:29;8.00;;;4.30;;
44985;SDS011;30721;49.380;7.736;2024-01-16T06:16:54;7.78;;;3.90;;
44985;SDS011;30721;49.380;7.736;2024-01-16T06:19:19;9.88;;;5.07;;
44985;SDS011;30721;49.380;7.736;2024-01-16T06:21:46;8.07;;;4.55;;
44985;SDS011;30721;49.380;7.736;2024-01-16T06:24:11;9.20;;;5.00;;
44985;SDS011;30721;49.380;7.736;2024-01-16T06:26:38;9.27;;;4.32;;
44985;SDS011;30721;49.380;7.736;2024-01-16T06:29:03;11.38;;;4.65;;
44985;SDS011;30721;49.380;7.736;2024-01-16T06:31:29;12.35;;;5.15;;
44985;SDS011;30721;49.380;7.736;2024-01-16T06:33:54;9.75;;;5.05;;
44985;SDS011;30721;49.380;7.736;2024-01-16T06:36:19;9.93;;;4.65;;
44985;SDS011;30721;49.380;7.736;2024-01-16T06:38:45;9.00;;;4.95;;
44985;SDS011;30721;49.380;7.736;2024-01-16T06:41:10;10.00;;;4.85;;
44985;SDS011;30721;49.380;7.736;2024-01-16T06:43:36;7.10;;;4.15;;
44985;SDS011;30721;49.380;7.736;2024-01-16T06:46:01;11.82;;;4.95;;
44985;SDS011;30721;49.380;7.736;2024-01-16T06:48:27;11.02;;;5.03;;
44985;SDS011;30721;49.380;7.736;2024-01-16T06:50:52;7.90;;;4.47;;
44985;SDS011;30721;49.380;7.736;2024-01-16T06:53:17;9.45;;;4.90;;
44985;SDS011;30721;49.380;7.736;2024-01-16T06:55:43;10.82;;;4.63;;
44985;SDS011;30721;49.380;7.736;2024-01-16T06:58:08;8.48;;;4.20;;
44985;SDS011;30721;49.380;7.736;2024-01-16T07:00:35;9.88;;;4.88;;
44985;SDS011;30721;49.380;7.736;2024-01-16T07:03:00;12.70;;;5.53;;
44985;SDS011;30721;49.380;7.736;2024-01-16T07:05:27;12.38;;;5.47;;
44985;SDS011;30721;49.380;7.736;2024-01-16T07:07:54;8.13;;;3.58;;
44985;SDS011;30721;49.380;7.736;2024-01-16T07:10:20;10.15;;;4.75;;
44985;SDS011;30721;49.380;7.736;2024-01-16T07:12:47;11.05;;;5.05;;
44985;SDS011;30721;49.380;7.736;2024-01-16T07:15:14;7.70;;;4.07;;
44985;SDS011;30721;49.380;7.736;2024-01-16T07:17:40;8.80;;;4.57;;
44985;SDS011;30721;49.380;7.736;2024-01-16T07:20:06;9.00;;;4.40;;
44985;SDS011;30721;49.380;7.736;2024-01-16T07:22:32;11.02;;;4.55;;
44985;SDS011;30721;49.380;7.736;2024-01-16T07:24:59;8.68;;;4.70;;
44985;SDS011;30721;49.380;7.736;2024-01-16T07:27:24;11.30;;;4.93;;
44985;SDS011;30721;49.380;7.736;2024-01-16T07:29:50;7.90;;;4.88;;
44985;SDS011;30721;49.380;7.736;2024-01-16T07:32:15;10.10;;;4.95;;
44985;SDS011;30721;49.380;7.736;2024-01-16T07:34:41;9.02;;;4.88;;
44985;SDS011;30721;49.380;7.736;2024-01-16T07:37:06;9.65;;;5.03;;
44985;SDS011;30721;49.380;7.736;2024-01-16T07:39:32;11.63;;;5.38;;
44985;SDS011;30721;49.380;7.736;2024-01-16T07:41:57;10.13;;;5.22;;
44985;SDS011;30721;49.380;7.736;2024-01-16T07:44:22;10.27;;;4.88;;
44985;SDS011;30721;49.380;7.736;2024-01-16T07:46:48;12.27;;;5.78;;
44985;SDS011;30721;49.380;7.736;2024-01-16T07:49:13;11.25;;;4.90;;
44985;SDS011;30721;49.380;7.736;2024-01-16T07:51:39;12.75;;;4.63;;
44985;SDS011;30721;49.380;7.736;2024-01-16T07:54:05;9.30;;;5.15;;
44985;SDS011;30721;49.380;7.736;2024-01-16T07:56:35;12.35;;;5.38;;
44985;SDS011;30721;49.380;7.736;2024-01-16T07:59:00;11.15;;;5.22;;
44985;SDS011;30721;49.380;7.736;2024-01-16T08:01:26;10.13;;;5.30;;
44985;SDS011;30721;49.380;7.736;2024-01-16T08:03:53;12.95;;;5.43;;
44985;SDS011;30721;49.380;7.736;2024-01-16T08:06:22;10.52;;;5.15;;
44985;SDS011;30721;49.380;7.736;2024-01-16T08:08:48;12.02;;;5.82;;
44985;SDS011;30721;49.380;7.736;2024-01-16T08:11:14;15.48;;;5.70;;
44985;SDS011;30721;49.380;7.736;2024-01-16T08:13:40;12.23;;;5.80;;
44985;SDS011;30721;49.380;7.736;2024-01-16T08:16:05;10.80;;;5.35;;
44985;SDS011;30721;49.380;7.736;2024-01-16T08:18:31;10.52;;;5.78;;
44985;SDS011;30721;49.380;7.736;2024-01-16T08:20:56;12.77;;;5.88;;
44985;SDS011;30721;49.380;7.736;2024-01-16T08:23:22;12.60;;;6.30;;
44985;SDS011;30721;49.380;7.736;2024-01-16T08:25:47;13.75;;;6.00;;
44985;SDS011;30721;49.380;7.736;2024-01-16T08:28:13;12.02;;;5.35;;
44985;SDS011;30721;49.380;7.736;2024-01-16T08:30:39;12.23;;;6.00;;
44985;SDS011;30721;49.380;7.736;2024-01-16T08:33:04;12.05;;;5.43;;
44985;SDS011;30721;49.380;7.736;2024-01-16T08:35:29;12.30;;;6.55;;
44985;SDS011;30721;49.380;7.736;2024-01-16T08:37:55;13.38;;;5.82;;
44985;SDS011;30721;49.380;7.736;2024-01-16T08:40:20;15.60;;;6.45;;
44985;SDS011;30721;49.380;7.736;2024-01-16T08:42:46;13.32;;;6.43;;
44985;SDS011;30721;49.380;7.736;2024-01-16T08:45:16;11.90;;;5.43;;
44985;SDS011;30721;49.380;7.736;2024-01-16T08:47:42;10.23;;;5.22;;
44985;SDS011;30721;49.380;7.736;2024-01-16T08:50:07;11.95;;;6.07;;
44985;SDS011;30721;49.380;7.736;2024-01-16T08:52:34;12.25;;;6.10;;
44985;SDS011;30721;49.380;7.736;2024-01-16T08:55:00;13.48;;;6.05;;
44985;SDS011;30721;49.380;7.736;2024-01-16T08:57:26;13.20;;;6.03;;
44985;SDS011;30721;49.380;7.736;2024-01-16T08:59:52;15.63;;;7.20;;
44985;SDS011;30721;49.380;7.736;2024-01-16T09:02:18;16.23;;;6.63;;
44985;SDS011;30721;49.380;7.736;2024-01-16T09:04:43;13.00;;;6.50;;
44985;SDS011;30721;49.380;7.736;2024-01-16T09:07:08;13.85;;;6.35;;
44985;SDS011;30721;49.380;7.736;2024-01-16T09:09:34;14.65;;;6.78;;
44985;SDS011;30721;49.380;7.736;2024-01-16T09:11:59;15.02;;;6.95;;
44985;SDS011;30721;49.380;7.736;2024-01-16T09:14:24;15.65;;;6.60;;
44985;SDS011;30721;49.380;7.736;2024-01-16T09:16:50;16.10;;;6.82;;
44985;SDS011;30721;49.380;7.736;2024-01-16T09:19:16;13.82;;;6.60;;
44985;SDS011;30721;49.380;7.736;2024-01-16T09:21:41;15.13;;;7.15;;
44985;SDS011;30721;49.380;7.736;2024-01-16T09:24:06;12.27;;;6.57;;
44985;SDS011;30721;49.380;7.736;2024-01-16T09:26:32;14.05;;;6.45;;
44985;SDS011;30721;49.380;7.736;2024-01-16T09:28:57;12.38;;;6.70;;
44985;SDS011;30721;49.380;7.736;2024-01-16T09:31:23;13.02;;;6.28;;
44985;SDS011;30721;49.380;7.736;2024-01-16T09:33:48;13.73;;;6.32;;
44985;SDS011;30721;49.380;7.736;2024-01-16T09:36:14;14.32;;;7.30;;
44985;SDS011;30721;49.380;7.736;2024-01-16T09:38:39;14.40;;;7.03;;
44985;SDS011;30721;49.380;7.736;2024-01-16T09:41:04;13.00;;;6.88;;
44985;SDS011;30721;49.380;7.736;2024-01-16T09:43:30;14.00;;;6.97;;
44985;SDS011;30721;49.380;7.736;2024-01-16T09:45:56;14.35;;;6.00;;
44985;SDS011;30721;49.380;7.736;2024-01-16T09:48:26;15.77;;;7.25;;
44985;SDS011;30721;49.380;7.736;2024-01-16T09:50:53;14.48;;;6.93;;
44985;SDS011;30721;49.380;7.736;2024-01-16T09:53:18;14.13;;;6.32;;
44985;SDS011;30721;49.380;7.736;2024-01-16T09:55:44;12.30;;;6.53;;
44985;SDS011;30721;49.380;7.736;2024-01-16T09:58:10;12.60;;;5.97;;
44985;SDS011;30721;49.380;7.736;2024-01-16T10:00:39;12.23;;;5.97;;
44985;SDS011;30721;49.380;7.736;2024-01-16T10:03:07;13.10;;;6.10;;
44985;SDS011;30721;49.380;7.736;2024-01-16T10:05:33;14.13;;;6.20;;
44985;SDS011;30721;49.380;7.736;2024-01-16T10:07:58;13.80;;;6.45;;
44985;SDS011;30721;49.380;7.736;2024-01-16T10:10:24;12.63;;;6.15;;
44985;SDS011;30721;49.380;7.736;2024-01-16T10:12:53;10.95;;;5.90;;
44985;SDS011;30721;49.380;7.736;2024-01-16T10:15:19;12.70;;;6.28;;
44985;SDS011;30721;49.380;7.736;2024-01-16T10:17:45;18.63;;;6.97;;
44985;SDS011;30721;49.380;7.736;2024-01-16T10:20:11;14.05;;;6.57;;
44985;SDS011;30721;49.380;7.736;2024-01-16T10:22:51;14.13;;;7.03;;
44985;SDS011;30721;49.380;7.736;2024-01-16T10:25:20;13.90;;;6.65;;
44985;SDS011;30721;49.380;7.736;2024-01-16T10:27:46;12.70;;;7.00;;
44985;SDS011;30721;49.380;7.736;2024-01-16T10:30:12;12.82;;;6.47;;
44985;SDS011;30721;49.380;7.736;2024-01-16T10:32:38;13.15;;;6.45;;
44985;SDS011;30721;49.380;7.736;2024-01-16T10:37:43;11.25;;;5.97;;
44985;SDS011;30721;49.380;7.736;2024-01-16T10:40:09;10.40;;;5.32;;
44985;SDS011;30721;49.380;7.736;2024-01-16T10:42:36;13.90;;;6.75;;
44985;SDS011;30721;49.380;7.736;2024-01-16T10:45:02;12.88;;;6.00;;
44985;SDS011;30721;49.380;7.736;2024-01-16T10:47:28;13.20;;;5.93;;
44985;SDS011;30721;49.380;7.736;2024-01-16T10:49:54;14.80;;;6.40;;
44985;SDS011;30721;49.380;7.736;2024-01-16T10:52:19;12.45;;;6.57;;
44985;SDS011;30721;49.380;7.736;2024-01-16T10:54:51;15.75;;;6.00;;
44985;SDS011;30721;49.380;7.736;2024-01-16T10:57:17;12.52;;;6.43;;
44985;SDS011;30721;49.380;7.736;2024-01-16T10:59:46;13.52;;;6.07;;
44985;SDS011;30721;49.380;7.736;2024-01-16T11:02:16;13.20;;;6.20;;
44985;SDS011;30721;49.380;7.736;2024-01-16T11:04:46;14.05;;;6.00;;
44985;SDS011;30721;49.380;7.736;2024-01-16T11:07:13;14.07;;;7.07;;
44985;SDS011;30721;49.380;7.736;2024-01-16T11:09:39;15.82;;;7.43;;
44985;SDS011;30721;49.380;7.736;2024-01-16T11:12:05;15.55;;;6.57;;
44985;SDS011;30721;49.380;7.736;2024-01-16T11:14:30;11.43;;;6.22;;
44985;SDS011;30721;49.380;7.736;2024-01-16T11:16:59;10.95;;;5.20;;
44985;SDS011;30721;49.380;7.736;2024-01-16T11:19:26;11.85;;;6.07;;
44985;SDS011;30721;49.380;7.736;2024-01-16T11:21:52;11.27;;;5.95;;
44985;SDS011;30721;49.380;7.736;2024-01-16T11:24:18;14.02;;;5.85;;
44985;SDS011;30721;49.380;7.736;2024-01-16T11:26:44;14.55;;;6.13;;
44985;SDS011;30721;49.380;7.736;2024-01-16T11:31:53;10.07;;;5.20;;
44985;SDS011;30721;49.380;7.736;2024-01-16T11:37:07;11.68;;;5.82;;
44985;SDS011;30721;49.380;7.736;2024-01-16T11:39:36;11.23;;;5.65;;
44985;SDS011;30721;49.380;7.736;2024-01-16T11:42:02;11.93;;;4.95;;
44985;SDS011;30721;49.380;7.736;2024-01-16T11:44:37;10.95;;;5.40;;
44985;SDS011;30721;49.380;7.736;2024-01-16T11:47:08;10.80;;;5.43;;
44985;SDS011;30721;49.380;7.736;2024-01-16T11:49:35;13.38;;;5.65;;
44985;SDS011;30721;49.380;7.736;2024-01-16T11:52:01;14.85;;;5.72;;
44985;SDS011;30721;49.380;7.736;2024-01-16T11:54:27;10.80;;;6.15;;
44985;SDS011;30721;49.380;7.736;2024-01-16T11:57:09;13.52;;;6.40;;
44985;SDS011;30721;49.380;7.736;2024-01-16T12:02:21;10.88;;;4.60;;
44985;SDS011;30721;49.380;7.736;2024-01-16T12:04:53;11.63;;;4.55;;
44985;SDS011;30721;49.380;7.736;2024-01-16T12:07:21;9.02;;;4.22;;
44985;SDS011;30721;49.380;7.736;2024-01-16T12:09:47;9.02;;;5.05;;
44985;SDS011;30721;49.380;7.736;2024-01-16T12:12:14;9.00;;;4.70;;
44985;SDS011;30721;49.380;7.736;2024-01-16T12:14:40;9.05;;;4.57;;
44985;SDS011;30721;49.380;7.736;2024-01-16T12:17:10;10.25;;;4.75;;
44985;SDS011;30721;49.380;7.736;2024-01-16T12:19:36;8.75;;;3.75;;
44985;SDS011;30721;49.380;7.736;2024-01-16T12:22:01;10.35;;;4.47;;
44985;SDS011;30721;49.380;7.736;2024-01-16T12:24:27;8.52;;;4.38;;
44985;SDS011;30721;49.380;7.736;2024-01-16T12:26:52;8.13;;;4.28;;
44985;SDS011;30721;49.380;7.736;2024-01-16T12:29:18;7.18;;;3.33;;
44985;SDS011;30721;49.380;7.736;2024-01-16T12:31:43;10.85;;;4.30;;
44985;SDS011;30721;49.380;7.736;2024-01-16T12:34:09;5.97;;;3.38;;
44985;SDS011;30721;49.380;7.736;2024-01-16T12:36:34;5.80;;;3.22;;
44985;SDS011;30721;49.380;7.736;2024-01-16T12:39:00;8.38;;;3.30;;
44985;SDS011;30721;49.380;7.736;2024-01-16T12:41:27;6.70;;;2.67;;
44985;SDS011;30721;49.380;7.736;2024-01-16T12:43:56;5.25;;;2.20;;
44985;SDS011;30721;49.380;7.736;2024-01-16T12:46:21;5.38;;;2.80;;
44985;SDS011;30721;49.380;7.736;2024-01-16T12:48:46;5.63;;;2.95;;
44985;SDS011;30721;49.380;7.736;2024-01-16T12:51:16;6.53;;;2.72;;
44985;SDS011;30721;49.380;7.736;2024-01-16T12:53:45;8.45;;;2.92;;
44985;SDS011;30721;49.380;7.736;2024-01-16T12:56:10;7.10;;;3.50;;
44985;SDS011;30721;49.380;7.736;2024-01-16T12:58:37;10.43;;;4.85;;
44985;SDS011;30721;49.380;7.736;2024-01-16T13:03:46;6.47;;;2.38;;
44985;SDS011;30721;49.380;7.736;2024-01-16T13:06:16;5.72;;;2.38;;
44985;SDS011;30721;49.380;7.736;2024-01-16T13:08:42;5.00;;;2.20;;
44985;SDS011;30721;49.380;7.736;2024-01-16T13:11:08;4.18;;;2.08;;
44985;SDS011;30721;49.380;7.736;2024-01-16T13:13:36;5.30;;;2.13;;
44985;SDS011;30721;49.380;7.736;2024-01-16T13:16:03;4.05;;;2.22;;
44985;SDS011;30721;49.380;7.736;2024-01-16T13:18:31;7.13;;;2.33;;
44985;SDS011;30721;49.380;7.736;2024-01-16T13:20:57;6.78;;;2.88;;
44985;SDS011;30721;49.380;7.736;2024-01-16T13:23:24;6.32;;;2.55;;
44985;SDS011;30721;49.380;7.736;2024-01-16T13:25:50;7.82;;;4.00;;
44985;SDS011;30721;49.380;7.736;2024-01-16T13:28:16;7.28;;;3.42;;
44985;SDS011;30721;49.380;7.736;2024-01-16T13:30:43;6.30;;;2.78;;
44985;SDS011;30721;49.380;7.736;2024-01-16T13:33:09;5.55;;;2.58;;
44985;SDS011;30721;49.380;7.736;2024-01-16T13:35:35;7.65;;;3.22;;
44985;SDS011;30721;49.380;7.736;2024-01-16T13:38:02;6.60;;;2.45;;
44985;SDS011;30721;49.380;7.736;2024-01-16T13:40:29;4.20;;;1.92;;
44985;SDS011;30721;49.380;7.736;2024-01-16T13:42:55;5.18;;;2.30;;
44985;SDS011;30721;49.380;7.736;2024-01-16T13:45:20;7.28;;;3.03;;
44985;SDS011;30721;49.380;7.736;2024-01-16T13:47:46;6.07;;;2.03;;
44985;SDS011;30721;49.380;7.736;2024-01-16T13:50:11;5.05;;;2.40;;
44985;SDS011;30721;49.380;7.736;2024-01-16T13:52:37;5.30;;;2.72;;
44985;SDS011;30721;49.380;7.736;2024-01-16T13:55:04;8.52;;;2.80;;
44985;SDS011;30721;49.380;7.736;2024-01-16T13:57:33;4.72;;;2.58;;
44985;SDS011;30721;49.380;7.736;2024-01-16T14:00:02;5.13;;;2.47;;
44985;SDS011;30721;49.380;7.736;2024-01-16T14:02:28;6.88;;;3.13;;
44985;SDS011;30721;49.380;7.736;2024-01-16T14:04:53;4.50;;;2.42;;
44985;SDS011;30721;49.380;7.736;2024-01-16T14:07:19;5.65;;;2.58;;
44985;SDS011;30721;49.380;7.736;2024-01-16T14:09:44;5.35;;;2.42;;
44985;SDS011;30721;49.380;7.736;2024-01-16T14:12:10;4.38;;;2.00;;
44985;SDS011;30721;49.380;7.736;2024-01-16T14:14:39;5.03;;;2.22;;
44985;SDS011;30721;49.380;7.736;2024-01-16T14:17:06;5.15;;;1.98;;
44985;SDS011;30721;49.380;7.736;2024-01-16T14:19:31;6.10;;;2.28;;
44985;SDS011;30721;49.380;7.736;2024-01-16T14:21:56;5.47;;;3.00;;
44985;SDS011;30721;49.380;7.736;2024-01-16T14:24:22;5.20;;;2.80;;
44985;SDS011;30721;49.380;7.736;2024-01-16T14:26:48;4.85;;;2.30;;
44985;SDS011;30721;49.380;7.736;2024-01-16T14:29:13;5.20;;;2.55;;
44985;SDS011;30721;49.380;7.736;2024-01-16T14:31:39;5.47;;;3.15;;
44985;SDS011;30721;49.380;7.736;2024-01-16T14:34:10;4.35;;;2.40;;
44985;SDS011;30721;49.380;7.736;2024-01-16T14:36:39;3.85;;;1.90;;
44985;SDS011;30721;49.380;7.736;2024-01-16T14:39:04;5.30;;;2.13;;
44985;SDS011;30721;49.380;7.736;2024-01-16T14:41:30;5.75;;;2.78;;
44985;SDS011;30721;49.380;7.736;2024-01-16T14:43:56;4.20;;;2.20;;
44985;SDS011;30721;49.380;7.736;2024-01-16T14:46:22;6.32;;;2.35;;
44985;SDS011;30721;49.380;7.736;2024-01-16T14:48:47;5.25;;;1.75;;
44985;SDS011;30721;49.380;7.736;2024-01-16T14:51:13;5.72;;;2.15;;